Terminal Aerodrome Forecast
Issued by NWS

Home | Current Version | Previous Version | Text Only | Print | Product List | Glossary On
Versions: 1 2 3 4 5 6 7 8 9 10 11 12 13 14 15 16 17
000
FTUS43 KDTX 161700
TAFDET
TAF
KDET 161728Z 1618/1718 30008KT P6SM SCT040
     FM162200 26006KT P6SM SCT050
     FM170200 28003KT P6SM SKC
     FM171500 26007KT P6SM SCT040=

USA.gov is the U.S. government's official web portal to all federal, state and local government web resources and services.